Time;durP1;ratioP1;P1;durP2;ratioP2;P2;SDS_P1;SDS_P2;PMS_P1;PMS_P2;Temp;Humidity;BMP_temperature;BMP_pressure;BME280_temperature;BME280_humidity;BME280_pressure;Samples;Min_cycle;Max_cycle;Signal;HPM_P1;HPM_P2
2023/08/14 00:00:38;;;;;;;18.60;6.88;;;;;;;19.37;87.37;99522.28;4755598;30;20407;-91
2023/08/14 00:03:04;;;;;;;12.85;7.10;;;;;;;19.64;87.35;99565.63;4788176;30;20047;-96
2023/08/14 00:05:30;;;;;;;13.93;7.50;;;;;;;19.36;87.66;99515.94;4766726;30;20060;-93
2023/08/14 00:07:56;;;;;;;10.47;6.83;;;;;;;19.28;87.73;99516.19;4844277;29;20056;-91
2023/08/14 00:10:32;;;;;;;9.90;7.27;;;;;;;19.53;88.11;99567.38;4902902;29;20074;-92
2023/08/14 00:12:58;;;;;;;14.48;8.05;;;;;;;19.49;88.65;99564.53;4897397;29;20036;-91
2023/08/14 00:15:24;;;;;;;11.50;7.93;;;;;;;19.18;89.20;99517.59;4888955;29;20188;-92
2023/08/14 00:17:51;;;;;;;10.43;7.60;;;;;;;19.43;89.27;99557.66;4863304;29;20112;-90
2023/08/14 00:20:21;;;;;;;14.65;7.60;;;;;;;19.53;89.52;99566.56;4857281;29;20045;-95
2023/08/14 00:22:47;;;;;;;25.95;8.05;;;;;;;19.22;89.72;99516.47;4889359;29;20123;-94
2023/08/14 00:25:18;;;;;;;17.58;8.00;;;;;;;19.20;89.65;99504.97;4875262;29;20040;-94
2023/08/14 00:27:45;;;;;;;15.60;8.30;;;;;;;19.36;89.62;99534.56;4871475;29;20060;-93
2023/08/14 00:30:12;;;;;;;12.43;8.18;;;;;;;19.41;89.82;99543.38;4880592;29;20052;-91
2023/08/14 00:32:38;;;;;;;19.08;8.68;;;;;;;19.10;90.26;99516.63;4865472;29;20091;-91
2023/08/14 00:35:04;;;;;;;16.25;9.25;;;;;;;19.15;90.41;99518.31;4860301;29;20074;-91
2023/08/14 00:37:45;;;;;;;21.45;9.15;;;;;;;19.29;90.56;99529.69;4873187;29;20033;-92
2023/08/14 00:40:14;;;;;;;14.75;8.68;;;;;;;19.25;90.42;99509.41;4881740;29;20192;-92
2023/08/14 00:42:44;;;;;;;21.67;9.80;;;;;;;18.99;90.33;99469.31;4875442;29;20096;-92
2023/08/14 00:45:11;;;;;;;16.98;9.40;;;;;;;19.45;90.48;99549.00;4868717;29;20036;-92
2023/08/14 00:47:38;;;;;;;14.50;9.57;;;;;;;19.11;90.80;99498.84;4876885;29;20416;-94
2023/08/14 00:50:06;;;;;;;16.45;9.32;;;;;;;19.10;90.99;99500.00;4881704;29;20043;-92
2023/08/14 00:52:38;;;;;;;17.85;9.23;;;;;;;19.18;90.83;99495.41;4883366;29;20051;-91
2023/08/14 00:55:09;;;;;;;18.27;9.85;;;;;;;19.38;90.70;99521.94;4894924;29;20040;-89
2023/08/14 00:57:38;;;;;;;14.32;9.68;;;;;;;19.43;90.92;99535.50;4896442;29;20045;-92
2023/08/14 01:00:05;;;;;;;21.75;9.52;;;;;;;19.21;90.72;99491.91;4871619;29;20100;-96
2023/08/14 01:02:34;;;;;;;17.70;9.63;;;;;;;19.12;90.79;99488.56;4854465;29;20044;-91
2023/08/14 01:05:00;;;;;;;18.95;9.48;;;;;;;19.08;91.07;99480.19;4869617;29;20067;-91
2023/08/14 01:07:26;;;;;;;17.52;9.63;;;;;;;19.13;91.13;99496.50;4870408;29;20143;-96
2023/08/14 01:09:52;;;;;;;16.73;9.40;;;;;;;19.18;91.31;99499.00;4885085;29;20063;-92
2023/08/14 01:12:42;;;;;;;15.00;9.13;;;;;;;19.25;91.51;99512.19;4885611;29;20040;-91
2023/08/14 01:15:13;;;;;;;15.82;9.45;;;;;;;19.24;91.63;99507.81;4865812;29;20048;-90
2023/08/14 01:17:46;;;;;;;22.45;10.02;;;;;;;19.21;91.69;99503.00;4866468;29;20131;-91
2023/08/14 01:20:17;;;;;;;12.50;9.27;;;;;;;19.31;91.90;99516.25;4868077;29;20080;-88
2023/08/14 01:22:46;;;;;;;16.48;10.10;;;;;;;19.32;91.79;99520.63;4884868;29;20047;-91
2023/08/14 01:25:32;;;;;;;17.70;9.23;;;;;;;19.34;92.05;99523.84;4870264;29;20068;-90
2023/08/14 01:28:00;;;;;;;13.40;9.80;;;;;;;19.30;91.91;99522.94;4901606;29;20064;-93
2023/08/14 01:30:26;;;;;;;18.75;9.30;;;;;;;19.15;92.31;99493.38;4905558;29;20056;-91
2023/08/14 01:32:54;;;;;;;15.80;9.50;;;;;;;19.08;92.50;99474.66;4885626;29;20066;-93
2023/08/14 01:35:25;;;;;;;16.08;9.73;;;;;;;18.93;92.72;99445.84;4898225;29;20052;-93
2023/08/14 01:38:01;;;;;;;20.67;9.98;;;;;;;18.93;92.38;99442.28;4882548;29;20047;-94
2023/08/14 01:40:44;;;;;;;15.32;9.68;;;;;;;19.34;92.34;99492.56;4904106;29;20072;-94
2023/08/14 01:43:36;;;;;;;14.73;9.48;;;;;;;18.79;92.84;99426.19;4876261;29;20417;-93
2023/08/14 01:46:05;;;;;;;20.60;9.70;;;;;;;19.13;93.15;99501.25;4871799;29;20044;-93
2023/08/14 01:48:32;;;;;;;12.63;8.80;;;;;;;19.01;93.27;99489.16;4886518;29;20513;-94
2023/08/14 01:51:01;;;;;;;13.63;8.80;;;;;;;18.98;93.71;99489.88;4872997;29;20052;-93
2023/08/14 01:53:27;;;;;;;15.18;9.20;;;;;;;19.04;94.06;99489.56;4870665;29;20092;-93
2023/08/14 01:55:53;;;;;;;12.87;9.03;;;;;;;19.03;93.72;99488.78;4854185;29;20045;-91
2023/08/14 01:58:19;;;;;;;16.07;8.70;;;;;;;19.10;93.87;99496.44;4884515;29;20384;-90
2023/08/14 02:00:45;;;;;;;17.55;8.13;;;;;;;18.83;93.70;99459.50;4898390;29;20041;-90
2023/08/14 02:03:11;;;;;;;;;;;;;;;19.19;93.88;99514.44;4898508;29;20055;-91
2023/08/14 02:05:38;;;;;;;13.67;8.60;;;;;;;19.09;94.09;99503.94;4869562;29;19927;-90
2023/08/14 02:08:05;;;;;;;14.53;8.90;;;;;;;19.09;94.26;99511.47;4867254;29;20369;-91
2023/08/14 02:10:32;;;;;;;14.90;8.13;;;;;;;19.08;93.90;99507.09;4868779;29;20317;-93
2023/08/14 02:12:58;;;;;;;;;;;;;;;19.21;94.23;99519.63;4868293;29;20041;-92
2023/08/14 02:15:24;;;;;;;11.13;7.87;;;;;;;19.09;94.09;99505.91;4868964;29;19923;-95
2023/08/14 02:17:51;;;;;;;10.80;7.43;;;;;;;19.10;93.71;99507.53;4906062;29;20139;-96
2023/08/14 02:20:18;;;;;;;17.58;7.38;;;;;;;18.99;94.16;99497.03;4893750;29;20044;-89
2023/08/14 02:22:44;;;;;;;11.20;7.53;;;;;;;19.01;94.36;99494.69;4890780;29;20048;-90
2023/08/14 02:25:10;;;;;;;11.40;7.07;;;;;;;19.08;94.35;99516.22;4889779;29;20060;-93
2023/08/14 02:27:36;;;;;;;11.23;7.00;;;;;;;18.98;94.40;99495.44;4892254;29;20802;-90
2023/08/14 02:30:03;;;;;;;14.13;7.87;;;;;;;19.19;94.50;99521.97;4885316;29;20139;-90
2023/08/14 02:32:31;;;;;;;13.90;7.05;;;;;;;18.97;94.87;99485.53;4871009;29;20064;-90
2023/08/14 02:34:57;;;;;;;11.95;7.07;;;;;;;18.99;94.75;99487.91;4848104;29;20136;-93
2023/08/14 02:37:23;;;;;;;9.17;6.87;;;;;;;19.20;94.83;99526.31;4852979;29;20080;-90
2023/08/14 02:39:49;;;;;;;8.90;5.93;;;;;;;19.09;95.17;99500.38;4886451;29;20079;-89
2023/08/14 02:42:17;;;;;;;14.45;6.32;;;;;;;19.05;95.27;99500.31;4895609;29;20117;-92
2023/08/14 02:44:43;;;;;;;9.27;6.55;;;;;;;19.24;95.06;99527.22;4868206;29;20045;-91
2023/08/14 02:47:10;;;;;;;13.90;6.82;;;;;;;19.13;95.08;99520.66;4877736;29;20532;-91
2023/08/14 02:49:36;;;;;;;13.45;6.45;;;;;;;19.18;95.29;99531.44;4880514;29;20057;-92
2023/08/14 02:52:04;;;;;;;12.38;6.72;;;;;;;19.16;95.46;99531.00;4849413;29;20049;-95
2023/08/14 02:54:29;;;;;;;11.70;5.90;;;;;;;19.03;95.65;99510.94;4848195;29;20049;-92
2023/08/14 02:56:56;;;;;;;8.47;6.23;;;;;;;19.18;95.19;99520.38;4849989;29;20480;-92
2023/08/14 02:59:22;;;;;;;11.07;5.85;;;;;;;19.30;95.70;99539.59;4892241;29;20055;-92
2023/08/14 03:01:48;;;;;;;11.75;5.85;;;;;;;19.09;95.18;99500.38;4903575;29;20044;-91
2023/08/14 03:04:16;;;;;;;10.65;5.90;;;;;;;19.01;95.23;99493.91;4890566;29;20073;-90
2023/08/14 03:06:42;;;;;;;9.07;5.57;;;;;;;19.10;95.51;99508.31;4875069;29;20045;-90
2023/08/14 03:09:08;;;;;;;8.00;5.30;;;;;;;19.10;95.59;99508.31;4854520;29;20045;-94
2023/08/14 03:11:34;;;;;;;7.03;5.20;;;;;;;19.22;95.63;99524.78;4874798;29;20349;-91
2023/08/14 03:14:02;;;;;;;8.63;5.13;;;;;;;18.98;95.53;99495.44;4861290;29;20033;-90
2023/08/14 03:16:28;;;;;;;9.48;5.32;;;;;;;19.12;95.52;99505.19;4901361;29;20052;-90
2023/08/14 03:18:54;;;;;;;10.07;5.47;;;;;;;19.10;95.36;99502.78;4886630;29;20044;-91
2023/08/14 03:21:20;;;;;;;7.37;5.27;;;;;;;19.09;95.63;99500.38;4887272;29;20147;-91
2023/08/14 03:23:48;;;;;;;8.87;5.57;;;;;;;19.14;94.97;99502.84;4902483;29;20387;-91
2023/08/14 03:26:14;;;;;;;8.60;5.65;;;;;;;19.32;95.02;99515.09;4871524;29;20427;-92
2023/08/14 03:28:40;;;;;;;11.23;5.47;;;;;;;19.11;94.99;99485.00;4875379;29;20078;-94
2023/08/14 03:31:06;;;;;;;7.80;5.03;;;;;;;19.14;94.65;99475.13;4893597;29;20044;-90
2023/08/14 03:33:33;;;;;;;13.88;5.47;;;;;;;19.52;94.50;99523.38;4889099;29;20135;-91
2023/08/14 03:35:59;;;;;;;12.63;6.47;;;;;;;19.42;94.12;99513.69;4876549;29;20041;-94
2023/08/14 03:38:25;;;;;;;9.13;5.20;;;;;;;19.49;94.44;99525.69;4872780;29;20045;-91
2023/08/14 03:40:51;;;;;;;10.70;5.85;;;;;;;19.36;94.48;99513.19;4889316;29;20054;-91
2023/08/14 03:43:17;;;;;;;9.47;6.23;;;;;;;19.51;94.23;99532.88;4872930;29;20041;-91
2023/08/14 03:45:46;;;;;;;8.48;5.55;;;;;;;19.51;94.18;99541.19;4876518;29;20305;-96
2023/08/14 03:48:12;;;;;;;8.95;5.97;;;;;;;19.31;94.33;99507.94;4873175;29;20108;-92
2023/08/14 03:50:40;;;;;;;10.32;5.97;;;;;;;19.51;93.96;99543.97;4905217;29;20048;-96
2023/08/14 03:53:06;;;;;;;9.67;6.07;;;;;;;19.36;94.23;99517.94;4889303;29;20054;-90
2023/08/14 03:55:32;;;;;;;12.55;5.82;;;;;;;19.43;94.26;99518.06;4874568;29;20281;-92
2023/08/14 03:57:58;;;;;;;13.90;6.07;;;;;;;19.54;94.06;99544.03;4875353;29;20056;-93
2023/08/14 04:00:26;;;;;;;8.70;6.10;;;;;;;19.61;94.11;99535.03;4923365;29;20175;-92
2023/08/14 04:02:52;;;;;;;11.48;6.68;;;;;;;19.47;93.94;99507.84;4889518;29;20289;-93
2023/08/14 04:05:18;;;;;;;9.95;6.78;;;;;;;19.62;93.99;99522.78;4889740;29;20040;-93
2023/08/14 04:07:44;;;;;;;10.85;6.78;;;;;;;19.53;93.62;99511.09;4876177;29;20056;-93
2023/08/14 04:10:12;;;;;;;10.55;6.32;;;;;;;19.59;93.89;99529.06;4890789;29;20083;-93
2023/08/14 04:12:38;;;;;;;8.75;6.28;;;;;;;19.61;93.68;99521.16;4858376;29;20116;-91
2023/08/14 04:15:17;;;;;;;8.43;6.25;;;;;;;19.64;93.93;99529.59;4857663;29;20049;-93
2023/08/14 04:17:51;;;;;;;11.90;6.05;;;;;;;19.41;93.74;99507.34;4908039;29;20041;-93
2023/08/14 04:20:18;;;;;;;11.43;5.75;;;;;;;19.42;94.00;99510.91;4886917;29;20124;-94
2023/08/14 04:22:45;;;;;;;11.57;5.90;;;;;;;19.62;94.37;99537.44;4879494;29;20052;-92
2023/08/14 04:25:11;;;;;;;9.57;5.40;;;;;;;19.50;93.92;99515.41;4878371;29;20048;-94
2023/08/14 04:27:38;;;;;;;11.52;6.63;;;;;;;19.30;93.63;99488.91;4880001;29;20068;-95
2023/08/14 04:30:08;;;;;;;11.00;6.25;;;;;;;19.70;94.02;99546.69;4894991;29;20055;-95
2023/08/14 04:32:35;;;;;;;11.32;6.65;;;;;;;19.38;93.81;99507.28;4881618;29;20056;-92
2023/08/14 04:35:01;;;;;;;12.90;6.82;;;;;;;19.39;93.91;99497.78;4865352;29;20028;-91
2023/08/14 04:37:29;;;;;;;10.40;7.10;;;;;;;19.47;93.65;99533.59;4892962;29;20057;-92
2023/08/14 04:39:55;;;;;;;12.13;7.90;;;;;;;19.45;93.81;99521.28;4891673;29;20044;-91
2023/08/14 04:42:23;;;;;;;11.05;7.40;;;;;;;19.55;94.02;99542.84;4893526;29;20048;-89
2023/08/14 04:44:50;;;;;;;12.93;7.72;;;;;;;19.34;93.82;99496.13;4894890;29;20049;-91
2023/08/14 04:47:16;;;;;;;13.80;8.47;;;;;;;19.56;94.26;99530.56;4859286;29;20052;-95
2023/08/14 04:49:42;;;;;;;15.55;8.68;;;;;;;19.55;93.78;99531.75;4889805;29;20387;-92
2023/08/14 04:52:08;;;;;;;22.43;8.57;;;;;;;19.47;93.64;99502.31;4871866;29;20056;-91
2023/08/14 04:54:35;;;;;;;16.13;9.65;;;;;;;19.72;93.75;99533.28;4868776;29;20037;-93
2023/08/14 04:57:01;;;;;;;13.68;8.73;;;;;;;19.71;93.56;99531.69;4872747;29;20517;-92
2023/08/14 04:59:28;;;;;;;15.85;9.10;;;;;;;19.85;93.57;99531.94;4876489;29;20075;-93
2023/08/14 05:01:56;;;;;;;12.80;8.80;;;;;;;19.70;93.12;99518.97;4850803;29;20077;-95
2023/08/14 05:04:24;;;;;;;18.20;8.70;;;;;;;19.87;92.67;99539.91;4884067;29;20052;-94
2023/08/14 05:06:53;;;;;;;14.77;8.80;;;;;;;19.63;91.80;99504.94;4880264;29;20044;-95
2023/08/14 05:09:21;;;;;;;17.67;9.82;;;;;;;19.48;92.34;99478.94;4910229;29;20040;-94
2023/08/14 05:11:47;;;;;;;14.82;9.23;;;;;;;19.46;91.84;99470.97;4879958;29;20036;-95
2023/08/14 05:14:18;;;;;;;18.80;10.70;;;;;;;19.73;91.85;99521.00;4877302;29;20037;-94
2023/08/14 05:16:46;;;;;;;14.20;9.60;;;;;;;19.65;91.50;99503.44;4891084;29;20044;-91
2023/08/14 05:19:13;;;;;;;16.30;10.60;;;;;;;19.98;91.14;99540.06;4891776;29;20580;-91
2023/08/14 05:21:40;;;;;;;16.52;9.27;;;;;;;19.82;91.43;99513.25;4863688;29;20487;-92
2023/08/14 05:24:06;;;;;;;22.60;9.77;;;;;;;19.84;90.74;99522.00;4893084;29;20071;-91
2023/08/14 05:26:33;;;;;;;16.63;9.57;;;;;;;19.97;90.95;99546.78;4878524;29;20044;-92
2023/08/14 05:28:59;;;;;;;19.65;10.27;;;;;;;19.92;90.22;99523.72;4887706;29;20036;-92
2023/08/14 05:31:25;;;;;;;19.92;10.18;;;;;;;20.03;90.26;99542.53;4882406;29;20056;-93
2023/08/14 05:33:51;;;;;;;16.48;10.80;;;;;;;19.74;90.08;99500.44;4884755;29;20060;-90
2023/08/14 05:36:18;;;;;;;16.47;11.17;;;;;;;19.84;90.30;99513.69;4871635;29;20096;-92
2023/08/14 05:38:47;;;;;;;21.88;9.25;;;;;;;20.06;89.46;99519.59;4870491;29;20053;-86
2023/08/14 05:41:13;;;;;;;19.65;10.23;;;;;;;20.38;88.83;99548.66;4884992;29;20041;-86
2023/08/14 05:43:39;;;;;;;16.47;8.93;;;;;;;20.46;87.21;99532.88;4890224;29;20068;-87
2023/08/14 05:46:06;;;;;;;16.70;8.83;;;;;;;20.68;85.97;99541.56;4890143;29;20643;-85
2023/08/14 05:48:31;;;;;;;22.63;10.55;;;;;;;20.63;85.83;99549.06;4908395;29;20120;-85
2023/08/14 05:50:58;;;;;;;16.17;10.23;;;;;;;20.47;85.32;99511.50;4894274;29;20072;-89
2023/08/14 05:53:26;;;;;;;15.90;10.13;;;;;;;20.54;85.86;99551.31;4872275;29;20048;-94
2023/08/14 05:55:52;;;;;;;19.40;10.68;;;;;;;20.49;87.06;99550.78;4878622;29;20491;-89
2023/08/14 05:58:26;;;;;;;15.98;9.93;;;;;;;20.41;87.33;99567.34;4857425;29;20053;-90
2023/08/14 06:00:55;;;;;;;18.40;10.75;;;;;;;20.34;88.45;99550.56;4846442;29;20053;-92
2023/08/14 06:03:22;;;;;;;17.50;10.65;;;;;;;20.15;88.79;99531.22;4870338;29;20059;-90
2023/08/14 06:05:48;;;;;;;22.95;10.93;;;;;;;20.28;89.39;99548.50;4865881;29;20600;-89
2023/08/14 06:08:14;;;;;;;17.08;10.65;;;;;;;20.12;89.70;99534.75;4868980;29;20073;-90
2023/08/14 06:10:41;;;;;;;16.97;9.80;;;;;;;20.17;89.18;99548.31;4862381;29;20045;-89
2023/08/14 06:13:08;;;;;;;19.05;11.68;;;;;;;20.21;89.57;99557.50;4870774;29;20130;-92
2023/08/14 06:15:34;;;;;;;22.70;11.50;;;;;;;20.22;89.78;99570.19;4890637;29;20057;-90
2023/08/14 06:18:01;;;;;;;16.13;8.83;;;;;;;20.44;89.03;99570.56;4862940;29;20037;-93
2023/08/14 06:20:27;;;;;;;12.70;9.05;;;;;;;20.41;88.01;99541.56;4825536;29;20380;-93
2023/08/14 06:22:53;;;;;;;12.67;7.83;;;;;;;20.48;86.13;99558.31;4849713;29;20056;-91
2023/08/14 06:25:20;;;;;;;14.45;9.82;;;;;;;20.36;86.65;99541.84;4874627;29;20344;-93
2023/08/14 06:27:49;;;;;;;11.10;8.80;;;;;;;20.48;86.61;99571.41;4879532;29;20053;-87
2023/08/14 06:30:15;;;;;;;16.88;8.80;;;;;;;20.37;87.43;99558.16;4881243;29;20053;-89
2023/08/14 06:32:41;;;;;;;16.20;9.53;;;;;;;20.46;87.98;99577.31;4898526;29;20049;-88
2023/08/14 06:35:08;;;;;;;19.08;9.90;;;;;;;20.43;88.40;99553.09;4884437;29;20060;-88
2023/08/14 06:37:34;;;;;;;15.13;9.07;;;;;;;20.32;86.54;99541.81;4903234;29;20126;-89
2023/08/14 06:40:00;;;;;;;17.67;9.15;;;;;;;20.47;85.95;99564.25;4869763;29;20045;-90
2023/08/14 06:42:27;;;;;;;16.05;9.52;;;;;;;20.57;85.87;99571.97;4867886;29;20048;-92
2023/08/14 06:44:54;;;;;;;16.02;9.45;;;;;;;20.56;85.25;99565.63;4879179;29;20053;-87
2023/08/14 06:47:20;;;;;;;16.48;9.68;;;;;;;20.63;85.26;99573.28;4880391;29;20124;-88
2023/08/14 06:49:46;;;;;;;13.80;9.38;;;;;;;20.69;84.53;99601.50;4875475;29;20048;-89
2023/08/14 06:52:13;;;;;;;17.80;11.02;;;;;;;20.71;84.77;99599.16;4884526;29;20045;-87
2023/08/14 06:54:40;;;;;;;12.25;8.82;;;;;;;20.64;84.27;99578.44;4845975;29;20057;-87
2023/08/14 06:57:07;;;;;;;22.23;9.52;;;;;;;20.85;84.40;99607.69;4843237;29;20139;-88
2023/08/14 06:59:35;;;;;;;19.95;10.05;;;;;;;20.96;83.84;99597.56;4833481;29;20053;-87
2023/08/14 07:02:01;;;;;;;24.35;9.73;;;;;;;21.03;83.44;99588.50;4808934;29;20050;-90
2023/08/14 07:04:31;;;;;;;17.25;9.02;;;;;;;21.24;82.03;99601.88;4824905;29;20049;-89
2023/08/14 07:07:31;;;;;;;18.27;9.25;;;;;;;21.23;81.66;99586.38;4850487;29;20071;-88
2023/08/14 07:09:57;;;;;;;17.77;9.40;;;;;;;21.47;82.12;99585.91;4833100;29;20054;-88
2023/08/14 07:12:23;;;;;;;;;;;;;;;21.73;79.27;99601.69;4835927;29;20073;-86
2023/08/14 07:14:51;;;;;;;19.60;9.65;;;;;;;21.85;80.11;99610.94;4837400;29;19928;-88
2023/08/14 07:17:18;;;;;;;16.77;9.40;;;;;;;21.66;77.37;99584.94;4846682;29;20050;-91
2023/08/14 07:19:45;;;;;;;20.98;9.73;;;;;;;21.77;77.58;99613.66;4857211;29;20045;-91
2023/08/14 07:22:11;;;;;;;14.68;8.23;;;;;;;21.86;76.71;99598.66;4865003;29;20053;-89
2023/08/14 07:24:39;;;;;;;12.93;8.70;;;;;;;21.87;76.93;99605.81;4856414;29;20057;-91
2023/08/14 07:27:05;;;;;;;16.77;7.68;;;;;;;21.95;77.37;99611.06;4845139;29;20046;-90
2023/08/14 07:29:31;;;;;;;18.23;8.38;;;;;;;21.74;77.46;99594.94;4849437;29;20037;-91
2023/08/14 07:32:02;;;;;;;21.00;9.30;;;;;;;22.04;77.31;99633.81;4851207;29;20054;-91
2023/08/14 07:34:28;;;;;;;18.20;9.20;;;;;;;21.71;76.73;99612.41;4848818;29;20089;-91
2023/08/14 07:36:57;;;;;;;15.68;8.43;;;;;;;21.63;76.63;99619.06;4801619;29;20078;-87
2023/08/14 07:39:49;;;;;;;14.25;8.65;;;;;;;21.84;77.20;99651.91;4849090;29;20053;-90
2023/08/14 07:42:16;;;;;;;13.88;8.90;;;;;;;21.78;76.22;99637.50;4869957;29;20057;-90
2023/08/14 07:44:43;;;;;;;14.00;8.43;;;;;;;21.78;77.10;99629.16;4840957;29;20033;-89
2023/08/14 07:47:10;;;;;;;15.55;8.82;;;;;;;21.88;76.57;99661.09;4856314;29;20510;-90
2023/08/14 07:49:38;;;;;;;16.17;8.88;;;;;;;21.79;75.97;99638.34;4875628;29;20045;-91
2023/08/14 07:52:05;;;;;;;14.85;8.43;;;;;;;21.87;75.77;99658.69;4872076;29;20070;-88
2023/08/14 07:54:32;;;;;;;17.60;9.10;;;;;;;21.63;76.58;99649.69;4889133;29;20045;-91
2023/08/14 07:57:08;;;;;;;18.85;9.52;;;;;;;21.69;77.06;99658.47;4858203;29;20507;-89
2023/08/14 07:59:34;;;;;;;14.13;8.80;;;;;;;21.59;76.39;99637.72;4891159;29;20063;-89
2023/08/14 08:02:02;;;;;;;16.35;9.02;;;;;;;21.65;75.84;99640.94;4857070;29;20045;-90
2023/08/14 08:04:36;;;;;;;14.85;8.35;;;;;;;21.76;76.00;99636.31;4864788;29;20072;-90
2023/08/14 08:07:03;;;;;;;12.43;8.70;;;;;;;21.84;75.40;99642.75;4859659;29;20047;-89
2023/08/14 08:09:31;;;;;;;15.05;8.88;;;;;;;21.70;75.19;99641.41;4883542;29;20029;-90
2023/08/14 08:12:02;;;;;;;16.50;8.60;;;;;;;21.88;75.70;99674.19;4871065;29;20045;-88
2023/08/14 08:14:35;;;;;;;17.05;8.18;;;;;;;21.89;75.26;99653.56;4892832;29;20063;-91
2023/08/14 08:17:01;;;;;;;18.80;8.40;;;;;;;21.81;75.27;99633.97;4890453;29;20041;-91
2023/08/14 08:19:27;;;;;;;17.52;9.27;;;;;;;22.00;74.12;99660.03;4893212;29;20124;-93
2023/08/14 08:21:57;;;;;;;17.55;8.63;;;;;;;22.25;75.14;99685.34;4875921;29;20053;-88
2023/08/14 08:24:27;;;;;;;16.95;8.70;;;;;;;22.14;74.43;99665.72;4854882;29;20087;-91
2023/08/14 08:26:53;;;;;;;19.73;9.70;;;;;;;22.22;73.68;99675.00;4873067;29;20116;-90
2023/08/14 08:29:25;;;;;;;15.18;7.85;;;;;;;22.29;73.88;99677.84;4888227;29;20066;-91
2023/08/14 08:31:52;;;;;;;18.65;8.82;;;;;;;22.27;74.61;99674.66;4872428;29;20061;-93
2023/08/14 08:34:22;;;;;;;15.35;9.55;;;;;;;22.27;74.28;99683.78;4875373;29;20062;-91
2023/08/14 08:36:50;;;;;;;10.73;7.30;;;;;;;22.10;74.09;99625.91;4856135;29;20053;-91
2023/08/14 08:39:22;;;;;;;16.70;9.30;;;;;;;22.32;74.24;99665.13;4871299;29;20045;-91
2023/08/14 08:41:51;;;;;;;15.15;8.63;;;;;;;22.53;73.96;99693.19;4904803;29;20080;-90
2023/08/14 08:44:32;;;;;;;21.30;9.30;;;;;;;22.24;74.33;99673.41;4907669;29;20123;-91
2023/08/14 08:47:10;;;;;;;18.10;8.38;;;;;;;22.11;74.06;99683.19;4897666;29;20040;-89
2023/08/14 08:49:39;;;;;;;20.80;9.30;;;;;;;22.13;75.19;99691.97;4893664;29;20028;-91
2023/08/14 08:52:08;;;;;;;14.48;8.40;;;;;;;22.17;75.16;99687.28;4897674;29;20056;-90
2023/08/14 08:54:37;;;;;;;18.75;8.40;;;;;;;22.17;74.25;99669.78;4882836;29;20072;-90
2023/08/14 08:57:06;;;;;;;16.83;8.40;;;;;;;22.20;73.82;99669.00;4911709;29;20100;-90
2023/08/14 08:59:40;;;;;;;15.55;8.55;;;;;;;22.49;72.87;99673.66;4908055;29;20111;-89
2023/08/14 09:02:15;;;;;;;14.90;7.97;;;;;;;22.46;71.87;99685.56;4917648;29;20044;-89
2023/08/14 09:04:43;;;;;;;16.83;8.20;;;;;;;22.43;71.78;99685.53;4895864;29;20040;-92
2023/08/14 09:07:14;;;;;;;27.77;8.65;;;;;;;22.36;72.15;99682.69;4890708;29;20073;-91
2023/08/14 09:09:42;;;;;;;17.38;7.90;;;;;;;22.46;72.38;99679.22;4903656;29;20047;-91
2023/08/14 09:12:08;;;;;;;21.88;8.32;;;;;;;22.63;72.30;99700.84;4927097;29;20054;-92
2023/08/14 09:14:48;;;;;;;16.42;7.80;;;;;;;22.61;71.14;99703.22;4923367;29;20047;-90
2023/08/14 09:17:15;;;;;;;23.02;8.48;;;;;;;22.52;70.61;99686.81;4898661;29;20016;-91
2023/08/14 09:20:14;;;;;;;12.90;7.68;;;;;;;22.80;70.08;99701.38;4911935;29;20048;-89
2023/08/14 09:22:44;;;;;;;23.75;8.35;;;;;;;22.84;70.87;99722.50;4932911;29;21793;-89
2023/08/14 09:25:11;;;;;;;14.13;8.10;;;;;;;22.53;71.30;99695.97;4909639;29;20044;-89
2023/08/14 09:27:40;;;;;;;8.15;6.47;;;;;;;22.54;71.02;99705.13;4924559;29;20044;-90
2023/08/14 09:30:17;;;;;;;13.50;7.25;;;;;;;22.58;70.79;99703.97;4886647;29;20059;-90
2023/08/14 09:32:49;;;;;;;12.13;7.50;;;;;;;22.63;70.59;99712.00;4894871;29;20056;-91
2023/08/14 09:35:52;;;;;;;10.10;7.53;;;;;;;22.61;70.76;99728.28;4906945;29;20048;-94
2023/08/14 09:48:25;;;;;;;18.27;8.60;;;;;;;22.56;70.08;99678.50;5126442;23;20087;-96
2023/08/14 10:19:24;;;;;;;20.35;7.85;;;;;;;22.55;71.54;99735.41;4906890;29;20065;-91
2023/08/14 10:21:54;;;;;;;20.20;8.75;;;;;;;22.86;70.89;99763.97;4872458;29;20045;-91
2023/08/14 10:24:46;;;;;;;21.23;8.68;;;;;;;22.83;69.57;99732.06;4857424;29;20207;-94
2023/08/14 10:30:31;;;;;;;14.43;7.30;;;;;;;23.05;70.07;99760.16;5304963;23;20048;-94
2023/08/14 11:18:02;;;;;;;16.52;8.70;;;;;;;23.48;66.45;99785.53;787069;23;20397;-89
2023/08/14 11:21:25;;;;;;;16.63;9.00;;;;;;;23.22;65.39;99739.97;4840379;29;20090;-93
2023/08/14 11:24:43;;;;;;;18.90;9.68;;;;;;;23.65;65.73;99794.06;4828825;29;20050;-95
2023/08/14 11:28:56;;;;;;;15.48;9.23;;;;;;;23.95;65.41;99801.41;4827929;29;20055;-94
2023/08/14 11:31:22;;;;;;;20.60;9.68;;;;;;;23.76;64.48;99749.47;4832238;29;20103;-93
2023/08/14 11:33:49;;;;;;;16.40;9.40;;;;;;;23.94;62.67;99771.06;4825997;29;20050;-93
2023/08/14 11:36:22;;;;;;;13.57;9.50;;;;;;;23.61;63.07;99762.53;4838939;29;20068;-95
2023/08/14 11:42:20;;;;;;;14.15;8.90;;;;;;;23.66;63.57;99756.56;4838751;29;20049;-92
2023/08/14 11:45:03;;;;;;;15.02;9.27;;;;;;;23.94;63.97;99793.41;4893600;23;20041;-93
2023/08/14 11:55:33;;;;;;;14.20;10.07;;;;;;;23.89;62.97;99811.34;4866711;29;20069;-93
2023/08/14 11:58:05;;;;;;;13.98;9.27;;;;;;;23.48;64.45;99752.88;4852800;29;20026;-91
2023/08/14 12:00:41;;;;;;;13.75;9.20;;;;;;;23.44;63.47;99749.25;4852330;29;20088;-93
2023/08/14 12:03:34;;;;;;;15.48;9.18;;;;;;;23.50;63.65;99750.50;4830893;29;20058;-93
2023/08/14 12:06:35;;;;;;;14.98;9.70;;;;;;;23.78;64.82;99797.34;4816298;29;20079;-94
2023/08/14 12:09:19;;;;;;;18.00;10.05;;;;;;;23.76;63.93;99779.38;4831803;29;20161;-96
2023/08/14 12:17:58;;;;;;;16.10;10.15;;;;;;;23.84;62.58;99759.50;4889185;24;20052;-96
2023/08/14 12:27:03;;;;;;;17.20;10.23;;;;;;;24.23;61.70;99763.59;4930718;29;20056;-91
2023/08/14 12:29:30;;;;;;;19.52;10.63;;;;;;;24.43;62.10;99787.25;4933809;29;20067;-91
2023/08/14 12:32:00;;;;;;;15.65;10.65;;;;;;;24.34;63.13;99775.63;4909310;29;20139;-92
2023/08/14 12:34:39;;;;;;;17.10;9.40;;;;;;;24.46;61.56;99808.00;4885827;29;20024;-90
2023/08/14 12:37:11;;;;;;;15.95;9.70;;;;;;;24.09;63.33;99776.34;4916680;29;20044;-90
2023/08/14 12:39:38;;;;;;;15.02;10.90;;;;;;;24.21;64.20;99811.50;4917019;29;20051;-91
2023/08/14 12:42:06;;;;;;;18.13;10.15;;;;;;;24.13;63.41;99812.66;4883558;29;20063;-91
2023/08/14 12:44:34;;;;;;;18.50;10.25;;;;;;;23.71;63.60;99774.16;4908788;29;20051;-90
2023/08/14 12:47:01;;;;;;;15.07;9.70;;;;;;;23.79;63.31;99792.56;4928347;29;20039;-93
2023/08/14 12:49:31;;;;;;;19.33;10.07;;;;;;;23.64;63.94;99784.09;4895430;29;20051;-90
2023/08/14 12:52:00;;;;;;;28.35;9.52;;;;;;;23.80;63.77;99810.91;4915783;29;20052;-89
2023/08/14 12:54:28;;;;;;;14.05;9.70;;;;;;;23.82;65.12;99808.53;4913588;29;20118;-91
2023/08/14 12:56:56;;;;;;;14.77;9.77;;;;;;;23.77;64.96;99809.69;4899958;29;20099;-91
2023/08/14 12:59:24;;;;;;;15.80;9.20;;;;;;;23.45;64.94;99771.19;4895577;29;20140;-91
2023/08/14 13:01:52;;;;;;;24.67;10.18;;;;;;;23.39;65.59;99769.97;4935336;29;20051;-92
2023/08/14 13:04:24;;;;;;;25.05;10.32;;;;;;;23.28;64.83;99757.13;4939745;29;20031;-94
2023/08/14 13:06:55;;;;;;;19.15;9.77;;;;;;;23.63;65.84;99810.38;4893154;29;20043;-91
2023/08/14 13:09:21;;;;;;;19.33;9.90;;;;;;;23.47;65.14;99772.78;4921906;29;20040;-91
2023/08/14 13:11:49;;;;;;;20.27;9.85;;;;;;;23.36;64.88;99751.22;4925175;29;20040;-91
2023/08/14 13:14:17;;;;;;;28.83;9.68;;;;;;;23.77;64.74;99809.69;4900950;29;20040;-92
2023/08/14 13:17:13;;;;;;;21.02;9.20;;;;;;;23.87;64.27;99810.94;4919841;29;20056;-94
2023/08/14 13:19:52;;;;;;;19.38;9.30;;;;;;;23.62;65.22;99772.50;4885921;29;20074;-95
2023/08/14 13:22:23;;;;;;;13.75;9.55;;;;;;;23.72;64.64;99784.94;4903389;29;20146;-94
2023/08/14 13:24:59;;;;;;;17.00;10.55;;;;;;;23.69;64.78;99782.94;4879922;29;20040;-93
2023/08/14 13:27:25;;;;;;;12.63;9.90;;;;;;;23.76;65.83;99794.13;4903740;29;20072;-93
2023/08/14 13:29:51;;;;;;;16.08;10.25;;;;;;;23.82;65.94;99792.56;4914105;29;20040;-95